Portada
METAR-TAF:

METAR-TAF

Aeroports :

Plataforma petroliera

Ekofisk, Noruega

latitud: 56-33N, longitud: 003-15E, altitud: 3 m

Observació

L'informe es va fer fa 20 minuts, a les 18:50 UTC
Vent 2 kt amb direcció variable
Temperatura 17°C
Humitat 63%
Pressió 1016 hPa
Visibilitat 10 km o més
sense núvols per sota de 1500 mi sense presència de cumulonimbus.

METAR: ENLE 021850Z VRB02KT CAVOK 17/10 Q1016 W11/S2

Hora: 21:10 (19:10 UTC)

Pronòstic

L'informe es va fer fa 2 hores i 10 minuts, a les 17:00 UTC
Pronòstic vàlid del 02 a les 18 UTC al 03 a les 03 UTC
Vent 5 kt amb direcció variable
Visibilitat 10 km o més
sense núvols per sota de 1500 mi sense presència de cumulonimbus.

TAF: ENLE 021700Z 0218/0303 VRB05KT CAVOK

Observacions i pronòstics meteorològics de més de 4000 aeroports (METAR i TAF).

Les estacions disponibles són els punts grocs i vermells al mapa.

Posi el ratolí al punt desitjat per veure el nom de l'estació.

Feu clic per veure les observacions i els pronòstics meteorològics.

Per canviar el mapa: feu clic els botons verds amb una creu de color negre per apropar; al botó verd amb un guió per allunyar la imatge; o en les fletxes verdes per a mapes adjacents.


METAR-TAF: